EST,Max TemperatureF,Mean TemperatureF,Min TemperatureF,Max Dew PointF,MeanDew PointF,Min DewpointF,Max Humidity, Mean Humidity, Min Humidity, Max Sea Level PressureIn, Mean Sea Level PressureIn, Min Sea Level PressureIn, Max VisibilityMiles, Mean VisibilityMiles, Min VisibilityMiles, Max Wind SpeedMPH, Mean Wind SpeedMPH, Max Gust SpeedMPH,PrecipitationIn, CloudCover, Events, WindDirDegrees
2013-1-1,32,20,8,31,20,5,96,80,60,30.13,30.06,30.01,10,8,2,12,5,,0.00,5,,350
2013-1-2,23,12,2,15,6,-2,91,79,51,30.22,30.17,30.09,10,7,2,10,3,,0.03,0,,249
2013-1-3,29,14,0,22,10,-6,89,75,47,30.25,30.19,30.15,10,8,2,18,5,25,0.00,3,,252
2013-1-4,29,25,21,20,17,14,76,68,60,30.28,30.24,30.22,10,10,10,20,14,29,0.00,2,,264
2013-1-5,34,22,9,27,19,7,93,78,68,30.33,30.25,30.12,10,8,2,13,8,,0.00,3,,220
2013-1-6,36,30,25,32,26,21,93,80,71,30.29,30.08,29.99,10,8,2,20,10,26,0.01,8,,249
2013-1-7,32,22,11,24,20,9,94,83,65,30.45,30.35,30.22,10,6,1,13,7,18,0.00,2,,230
2013-1-8,38,24,11,29,22,9,93,81,65,30.32,30.26,30.21,10,7,2,10,5,,0.00,0,,194
2013-1-9,42,35,28,35,30,24,94,78,69,30.50,30.30,30.17,10,10,5,16,9,22,0.00,2,,239
2013-1-10,40,31,23,30,26,22,95,80,62,30.55,30.42,30.16,10,7,2,9,2,,0.00,4,,122
2013-1-11,57,48,38,50,42,28,95,83,64,30.15,29.97,29.89,10,8,0,18,7,23,0.32,5,,198
2013-1-12,61,50,40,59,50,40,95,90,77,30.03,29.96,29.83,10,6,0,16,8,22,0.01,5,,195
2013-1-13,62,49,36,58,51,33,95,88,78,30.07,29.86,29.75,10,8,2,22,14,30,0.19,8,,232
2013-1-14,35,30,23,33,21,18,91,80,74,30.42,30.31,30.08,10,10,10,14,9,17,0.04,7,,350
2013-1-15,30,27,24,24,21,18,84,75,67,30.37,30.27,30.08,10,10,10,14,8,17,0.00,6,,44
2013-1-16,34,30,28,26,24,21,89,77,64,30.08,29.99,29.93,10,9,5,16,7,20,0.00,4,,283
2013-1-17,38,30,22,28,24,12,80,71,60,30.34,30.16,30.04,10,10,10,17,8,24,0.00,4,,307
2013-1-18,34,26,18,23,17,11,84,68,53,30.49,30.36,30.17,10,10,10,21,9,29,0.00,0,,237
2013-1-19,50,41,32,28,24,21,68,51,37,30.16,30.01,29.82,10,10,10,26,18,34,0.00,0,,229
2013-1-20,43,32,22,32,16,10,67,57,46,30.18,30.07,29.80,10,10,10,30,17,48,0.00,3,,295
2013-1-21,22,16,8,16,8,-2,80,67,45,30.16,30.07,30.01,10,9,1,28,10,39,0.00,7,,301
2013-1-22,14,10,5,0,-3,-6,66,59,46,30.30,30.25,30.16,10,10,5,16,12,22,0.00,2,,286
2013-1-23,20,13,6,13,3,-2,85,62,38,30.29,30.20,30.05,10,9,3,14,8,20,0.00,6,,264
2013-1-24,20,14,9,14,8,4,86,71,54,30.54,30.40,30.05,10,9,3,20,9,26,0.00,3,,8
2013-1-25,23,18,15,19,12,4,86,74,54,30.44,30.15,30.00,10,7,0,12,5,,0.05,7,,183
2013-1-26,28,16,5,20,16,2,89,77,64,30.44,30.25,30.07,10,8,2,13,7,17,0.00,7,,315
2013-1-27,32,17,2,29,14,-2,91,75,58,30.46,30.37,30.20,10,8,3,9,2,,0.05,3,,159
2013-1-28,49,40,32,46,40,30,97,93,86,30.18,30.05,29.98,7,4,0,18,11,24,0.04,8,,218
2013-1-29,61,54,46,54,50,45,96,86,74,30.04,29.88,29.63,10,6,0,24,12,33,0.00,6,,213
2013-1-30,61,47,33,54,46,27,94,81,70,29.62,29.39,29.25,10,9,2,31,17,41,0.47,6,,220
2013-1-31,32,24,16,27,17,8,85,72,59,29.92,29.76,29.45,10,7,0,34,17,47,0.01,8,,276